Wilson Avonmouth — 9HA2335 — position and weather

sailwx.info

Track history (hours):
 
Tides and Currents Weather Stations Pressure Air Temp Water Temp Dewpoint Dewpoint Depression Visibility Wind Speed Wind Dir Waves Ship Positions

Wilson Avonmouth

Last reported at 2017-Nov-20 00:30 UTC. Time now 2017-Nov-21 23:11 UTC.
Position N 51°16' W 004°17'.

Length 88 m; draft 5.1 m.

Type: Cargo ship. MMSI: 248367000.

Date/timePositionNaut miles runAvg speedWind from/ knotsBaromVisibWave heightAir tempDewpointWater temp
2017-Nov-20 00:30N 51°16' W 004°17'5 9.6
2017-Nov-19 23:59N 51°18' W 004°10'611.1
2017-Nov-19 23:28N 51°19' W 004°01'612.4
2017-Nov-19 22:59N 51°19' W 003°51'613.0
2017-Nov-19 22:30N 51°20' W 003°41'713.1
2017-Nov-19 21:58N 51°20' W 003°30'713.6
2017-Nov-19 21:30N 51°21' W 003°20'5 9.2
2017-Nov-19 21:00N 51°23' W 003°14'611.6
2017-Nov-19 20:30N 51°25' W 003°05'510.2
2017-Nov-19 20:00N 51°29' W 003°00'4 6.9
2017-Nov-19 19:27N 51°33' W 002°59'1 0.0
2017-Nov-18 06:58N 51°34' W 002°58'1 1.2
2017-Nov-18 06:30N 51°33' W 002°58'2 4.0
2017-Nov-18 05:59N 51°31' W 002°59'510.6
2017-Nov-18 05:30N 51°27' W 003°03'812.1
2017-Nov-18 04:51N 51°22' W 003°13'611.2
2017-Nov-18 04:20N 51°20' W 003°22'51 4.7
2017-Nov-17 17:39N 51°23' W 004°43'210.7
2017-Nov-17 17:29N 51°23' W 004°45'511.0
2017-Nov-17 17:00N 51°25' W 004°53'611.3
2017-Nov-17 16:30N 51°26' W 005°02'611.4
2017-Nov-17 16:00N 51°28' W 005°11'611.6
2017-Nov-17 15:30N 51°30' W 005°19'611.8
2017-Nov-17 15:00N 51°32' W 005°28'611.9
2017-Nov-17 14:30N 51°34' W 005°37'15910.0
2017-Nov-16 22:35N 54°13' W 005°19'110.4
2017-Nov-16 22:30N 54°14' W 005°19'510.4
2017-Nov-16 22:00N 54°19' W 005°18'510.3
2017-Nov-16 21:30N 54°24' W 005°17'510.9
2017-Nov-16 21:00N 54°29' W 005°17'611.3
2017-Nov-16 20:30N 54°35' W 005°18'612.1
2017-Nov-16 20:00N 54°41' W 005°18'612.4
2017-Nov-16 19:30N 54°46' W 005°23'612.9
2017-Nov-16 19:00N 54°52' W 005°29'2112.6
2017-Nov-16 17:19N 55°08' W 005°53'411.6
2017-Nov-16 17:00N 55°11' W 005°57'611.7
2017-Nov-16 16:30N 55°14' W 006°05'612.9
2017-Nov-16 16:00N 55°15' W 006°16'5 9.6
2017-Nov-16 15:30N 55°16' W 006°25'5 9.2
2017-Nov-16 15:00N 55°16' W 006°33'4 8.9
2017-Nov-16 14:30N 55°15' W 006°40'5 9.2
2017-Nov-16 14:00N 55°15' W 006°48'5 9.2
2017-Nov-16 13:30N 55°13' W 006°56'5 9.1
2017-Nov-16 12:54N 55°10' W 007°04'410.2
2017-Nov-16 12:29N 55°08' W 007°10'510.1
2017-Nov-16 11:59N 55°03' W 007°14'1 0.1
2017-Nov-15 14:03N 55°03' W 007°16'0 0.0
2017-Nov-15 12:32N 55°03' W 007°16'0 0.0
2017-Nov-15 12:14N 55°03' W 007°16'0 0.0
2017-Nov-15 11:59N 55°03' W 007°16'0 0.0
2017-Nov-15 11:27N 55°03' W 007°16'0 0.0
2017-Nov-15 10:51N 55°03' W 007°16'0 0.0
2017-Nov-15 09:15N 55°03' W 007°16'0 0.0
2017-Nov-14 19:02N 55°03' W 007°16'0 0.0
2017-Nov-14 18:39N 55°03' W 007°16'0 0.0
2017-Nov-14 18:16N 55°03' W 007°16'1 2.4
2017-Nov-14 18:00N 55°03' W 007°15'4 8.7
2017-Nov-14 17:30N 55°07' W 007°12'6 8.6
2017-Nov-14 16:50N 55°10' W 007°04'1 2.8
2017-Nov-14 16:30N 55°11' W 007°02'0 0.7
2017-Nov-14 16:00N 55°11' W 007°02'0 0.1
2017-Nov-14 15:29N 55°11' W 007°02'3 6.8
2017-Nov-14 14:59N 55°13' W 006°56'6 9.7
2017-Nov-14 14:24N 55°16' W 006°48'5 9.9
2017-Nov-14 13:52N 55°18' W 006°40'4 9.7
2017-Nov-14 13:30N 55°20' W 006°35'510.3
2017-Nov-14 13:00N 55°23' W 006°27'510.3
2017-Nov-14 12:30N 55°25' W 006°19'510.5
2017-Nov-14 12:00N 55°25' W 006°10'510.9
2017-Nov-14 11:30N 55°23' W 006°01'612.4
2017-Nov-14 11:00N 55°17' W 005°55'612.6
2017-Nov-14 10:30N 55°12' W 005°49'611.6
2017-Nov-14 10:00N 55°07' W 005°43'711.0
2017-Nov-14 09:24N 55°02' W 005°37'410.0
2017-Nov-14 08:59N 54°58' W 005°33'5 9.9
2017-Nov-14 08:31N 54°54' W 005°29'5 9.2
2017-Nov-14 08:01N 54°50' W 005°25'4 8.7
2017-Nov-14 07:30N 54°46' W 005°21'4 7.9
2017-Nov-14 07:00N 54°43' W 005°18'4 7.6
2017-Nov-14 06:30N 54°40' W 005°14'4 7.4
2017-Nov-14 06:00N 54°37' W 005°11'4 8.0
2017-Nov-14 05:31N 54°33' W 005°10'4 8.4
2017-Nov-14 05:00N 54°29' W 005°10'4 8.5
2017-Nov-14 04:30N 54°24' W 005°10'4 8.6
2017-Nov-14 04:00N 54°20' W 005°10'4 8.8
2017-Nov-14 03:30N 54°16' W 005°10'5 9.1
2017-Nov-14 03:00N 54°11' W 005°12'  
Track history (hours):
 
Tides and Currents Weather Stations Pressure Air Temp Water Temp Dewpoint Dewpoint Depression Visibility Wind Speed Wind Dir Waves Ship Positions

Wilson Avonmouth

Last reported at 2017-Nov-20 00:30 UTC. Time now 2017-Nov-21 23:11 UTC.
Position N 51°16' W 004°17'.

Length 88 m; draft 5.1 m.

Type: Cargo ship. MMSI: 248367000.

Date/timePositionNaut miles runAvg speedWind from/ knotsBaromVisibWave heightAir tempDewpointWater temp
2017-Nov-20 00:30N 51°16' W 004°17'5 9.6
2017-Nov-19 23:59N 51°18' W 004°10'611.1
2017-Nov-19 23:28N 51°19' W 004°01'612.4
2017-Nov-19 22:59N 51°19' W 003°51'613.0
2017-Nov-19 22:30N 51°20' W 003°41'713.1
2017-Nov-19 21:58N 51°20' W 003°30'713.6
2017-Nov-19 21:30N 51°21' W 003°20'5 9.2
2017-Nov-19 21:00N 51°23' W 003°14'611.6
2017-Nov-19 20:30N 51°25' W 003°05'510.2
2017-Nov-19 20:00N 51°29' W 003°00'4 6.9
2017-Nov-19 19:27N 51°33' W 002°59'1 0.0
2017-Nov-18 06:58N 51°34' W 002°58'1 1.2
2017-Nov-18 06:30N 51°33' W 002°58'2 4.0
2017-Nov-18 05:59N 51°31' W 002°59'510.6
2017-Nov-18 05:30N 51°27' W 003°03'812.1
2017-Nov-18 04:51N 51°22' W 003°13'611.2
2017-Nov-18 04:20N 51°20' W 003°22'51 4.7
2017-Nov-17 17:39N 51°23' W 004°43'210.7
2017-Nov-17 17:29N 51°23' W 004°45'511.0
2017-Nov-17 17:00N 51°25' W 004°53'611.3
2017-Nov-17 16:30N 51°26' W 005°02'611.4
2017-Nov-17 16:00N 51°28' W 005°11'611.6
2017-Nov-17 15:30N 51°30' W 005°19'611.8
2017-Nov-17 15:00N 51°32' W 005°28'611.9
2017-Nov-17 14:30N 51°34' W 005°37'15910.0
2017-Nov-16 22:35N 54°13' W 005°19'110.4
2017-Nov-16 22:30N 54°14' W 005°19'510.4
2017-Nov-16 22:00N 54°19' W 005°18'510.3
2017-Nov-16 21:30N 54°24' W 005°17'510.9
2017-Nov-16 21:00N 54°29' W 005°17'611.3
2017-Nov-16 20:30N 54°35' W 005°18'612.1
2017-Nov-16 20:00N 54°41' W 005°18'612.4
2017-Nov-16 19:30N 54°46' W 005°23'612.9
2017-Nov-16 19:00N 54°52' W 005°29'2112.6
2017-Nov-16 17:19N 55°08' W 005°53'411.6
2017-Nov-16 17:00N 55°11' W 005°57'611.7
2017-Nov-16 16:30N 55°14' W 006°05'612.9
2017-Nov-16 16:00N 55°15' W 006°16'5 9.6
2017-Nov-16 15:30N 55°16' W 006°25'5 9.2
2017-Nov-16 15:00N 55°16' W 006°33'4 8.9
2017-Nov-16 14:30N 55°15' W 006°40'5 9.2
2017-Nov-16 14:00N 55°15' W 006°48'5 9.2
2017-Nov-16 13:30N 55°13' W 006°56'5 9.1
2017-Nov-16 12:54N 55°10' W 007°04'410.2
2017-Nov-16 12:29N 55°08' W 007°10'510.1
2017-Nov-16 11:59N 55°03' W 007°14'1 0.1
2017-Nov-15 14:03N 55°03' W 007°16'0 0.0
2017-Nov-15 12:32N 55°03' W 007°16'0 0.0
2017-Nov-15 12:14N 55°03' W 007°16'0 0.0
2017-Nov-15 11:59N 55°03' W 007°16'0 0.0
2017-Nov-15 11:27N 55°03' W 007°16'0 0.0
2017-Nov-15 10:51N 55°03' W 007°16'0 0.0
2017-Nov-15 09:15N 55°03' W 007°16'0 0.0
2017-Nov-14 19:02N 55°03' W 007°16'0 0.0
2017-Nov-14 18:39N 55°03' W 007°16'0 0.0
2017-Nov-14 18:16N 55°03' W 007°16'1 2.4
2017-Nov-14 18:00N 55°03' W 007°15'4 8.7
2017-Nov-14 17:30N 55°07' W 007°12'6 8.6
2017-Nov-14 16:50N 55°10' W 007°04'1 2.8
2017-Nov-14 16:30N 55°11' W 007°02'0 0.7
2017-Nov-14 16:00N 55°11' W 007°02'0 0.1
2017-Nov-14 15:29N 55°11' W 007°02'3 6.8
2017-Nov-14 14:59N 55°13' W 006°56'6 9.7
2017-Nov-14 14:24N 55°16' W 006°48'5 9.9
2017-Nov-14 13:52N 55°18' W 006°40'4 9.7
2017-Nov-14 13:30N 55°20' W 006°35'510.3
2017-Nov-14 13:00N 55°23' W 006°27'510.3
2017-Nov-14 12:30N 55°25' W 006°19'510.5
2017-Nov-14 12:00N 55°25' W 006°10'510.9
2017-Nov-14 11:30N 55°23' W 006°01'612.4
2017-Nov-14 11:00N 55°17' W 005°55'612.6
2017-Nov-14 10:30N 55°12' W 005°49'611.6
2017-Nov-14 10:00N 55°07' W 005°43'711.0
2017-Nov-14 09:24N 55°02' W 005°37'410.0
2017-Nov-14 08:59N 54°58' W 005°33'5 9.9
2017-Nov-14 08:31N 54°54' W 005°29'5 9.2
2017-Nov-14 08:01N 54°50' W 005°25'4 8.7
2017-Nov-14 07:30N 54°46' W 005°21'4 7.9
2017-Nov-14 07:00N 54°43' W 005°18'4 7.6
2017-Nov-14 06:30N 54°40' W 005°14'4 7.4
2017-Nov-14 06:00N 54°37' W 005°11'4 8.0
2017-Nov-14 05:31N 54°33' W 005°10'4 8.4
2017-Nov-14 05:00N 54°29' W 005°10'4 8.5
2017-Nov-14 04:30N 54°24' W 005°10'4 8.6
2017-Nov-14 04:00N 54°20' W 005°10'4 8.8
2017-Nov-14 03:30N 54°16' W 005°10'5 9.1
2017-Nov-14 03:00N 54°11' W 005°12'  

Dump ship's entire track history